• Join FlightAware (Why Join?)
  • Login
  • US Flag 
05:47AM EDT


 

Airport Tracker/Info


-or-


 

Live Flight TrackerFlight Track Log ✈ AWE3286 ✈ 07-Dec-2013 ✈ KCLT - KBDL

Flight Track Log - Related Links

Times and Time Zones

All times are in EST time to prevent confusion due to time zone crossing. See the AWE3286 flight status page for this flight to view local times or setup timezone preferences in your user account.

Time Position Orientation Groundspeed Altitude Reporting Facility
EST Latitude Longitude Course Direction KTS MPH feet Rate Location/Type
10:17AM 35.2328 -80.9392 111° Southeast 156 180 1,600  Level Atlanta Center
10:18AM 35.2719 -80.9225 19° North 183 211 3,200 1,620 Climbing Atlanta Center
10:19AM 35.4689 -80.6731 30° Northeast  Level Estimated
10:19AM 35.2844 -80.8456 79° East 268 308 4,800  Level Atlanta Center
10:19AM 35.2878 -80.8125 83° East 279 321 5,200 2,100 Climbing Atlanta Center
10:20AM 35.5539 -80.5807 72° East  Level Estimated
10:20AM 35.2967 -80.7536 80° East 311 358 6,800  Level Atlanta Center
10:20AM 35.2975 -80.7103 89° East 312 359 7,500 2,280 Climbing Atlanta Center
10:21AM 35.5127 -80.4508 111° Southeast  Level FlightAware Approximate
10:21AM 35.3136 -80.6078 79° East 343 395 10,100  Level Atlanta Center
10:22AM 35.4714 -80.3211 111° Southeast  Level FlightAware Approximate
10:22AM 35.3289 -80.4900 81° East 356 410 10,900  Level Atlanta Center
10:23AM 35.3725 -80.3406 70° East 394 453 13,300 1,920 Climbing Atlanta Center
10:25AM 35.4453 -80.0944 70° East 428 493 16,500 1,560 Climbing Washington Center
10:26AM 35.4744 -79.9839 72° East 428 493 17,800 1,260 Climbing Washington Center
10:27AM 35.5139 -79.8203 73° East 433 498 19,100 1,260 Climbing Washington Center
10:28AM 35.5522 -79.6717 72° East 439 505 20,300 1,200 Climbing Washington Center
10:29AM 35.5889 -79.5178 74° East 458 527 21,500 1,140 Climbing Washington Center
10:30AM 35.6394 -79.3694 67° East 470 541 22,600 1,140 Climbing Washington Center
10:31AM 35.7006 -79.2189 63° Northeast 476 548 23,800 1,080 Climbing Washington Center
10:32AM 35.7614 -79.0681 64° Northeast 481 554 24,900 900 Climbing Washington Center
10:33AM 35.8267 -78.8994 64° Northeast 486 559 25,700 840 Climbing Washington Center
10:34AM 35.8933 -78.7456 62° Northeast 492 566 26,600 900 Climbing Washington Center
10:35AM 35.9683 -78.5922 59° Northeast 497 572 27,500 780 Climbing Washington Center
10:36AM 36.0431 -78.4358 59° Northeast 511 588 28,200 900 Climbing Washington Center
10:37AM 36.1197 -78.2764 59° Northeast 523 602 29,400 1,200 Climbing Washington Center
10:38AM 36.1961 -78.1194 59° Northeast 528 608 30,600 1,200 Climbing Washington Center
10:39AM 36.2725 -77.9597 59° Northeast 528 608 31,800 1,140 Climbing Washington Center
10:40AM 36.3464 -77.8019 60° Northeast 523 602 33,000 1,080 Climbing Washington Center
10:41AM 36.4200 -77.6517 59° Northeast 523 602 34,000 900 Climbing Washington Center
10:42AM 36.4894 -77.4908 62° Northeast 518 596 34,900 480 Climbing Washington Center
10:43AM 36.5647 -77.3350 59° Northeast 523 602 35,000  Climbing Washington Center
10:44AM 36.6403 -77.1683 60° Northeast 528 608 35,000  Level Washington Center
10:45AM 36.7236 -77.0119 56° Northeast 528 608 35,000  Level Washington Center
10:46AM 36.8375 -76.8972 39° Northeast 522 601 35,000  Level Washington Center
10:47AM 36.9553 -76.7928 35° Northeast 515 593 35,000  Level Washington Center
10:48AM 37.0628 -76.6956 36° Northeast 524 603 35,000  Level Washington Center
10:49AM 37.1825 -76.5878 36° Northeast 529 609 35,000  Level Washington Center
10:50AM 37.3003 -76.4794 36° Northeast 524 603 35,000  Level Washington Center
10:51AM 37.4197 -76.3711 36° Northeast 524 603 35,000  Level Washington Center
10:52AM 37.5372 -76.2622 36° Northeast 524 603 35,000  Level Washington Center
10:53AM 37.6714 -76.1481 34° Northeast 524 603 35,000  Level Washington Center
10:54AM 37.7678 -76.0594 36° Northeast 529 609 35,000  Level Washington Center
10:55AM 37.8953 -75.9311 38° Northeast 529 609 35,000  Level Washington Center
10:56AM 38.0292 -75.8131 35° Northeast 529 609 35,000  Level Washington Center
10:57AM 38.1333 -75.7078 38° Northeast 529 609 35,000  Level Washington Center
10:58AM 38.2525 -75.5944 37° Northeast 529 609 35,000  Level Washington Center
10:59AM 38.3711 -75.4831 36° Northeast 529 609 35,000  Level Washington Center
11:00AM 38.4942 -75.3822 33° Northeast 529 609 35,000  Level Washington Center
11:01AM 38.6167 -75.2756 34° Northeast 529 609 35,000  Level Washington Center
11:02AM 38.7417 -75.1686 34° Northeast 534 615 35,000  Level Washington Center
11:03AM 38.8619 -75.0664 33° Northeast 534 615 35,000  Level Washington Center
11:04AM 38.9844 -74.9533 36° Northeast 529 609 35,000  Level Washington Center
11:05AM 39.1047 -74.8453 35° Northeast 529 609 35,000  Level Washington Center
11:06AM 39.2292 -74.7342 35° Northeast 529 609 35,000  Level Washington Center
11:08AM 39.4642 -74.5167 36° Northeast 504 580 35,000 -360 Level New York Center
11:09AM 39.5906 -74.4131 32° Northeast 526 605 34,100 -1,620 Descending New York Center
11:10AM 39.7106 -74.3031 35° Northeast 542 624 31,800 -2,400 Descending New York Center
11:11AM 39.8347 -74.1878 35° Northeast 542 624 29,400 -2,400 Descending New York Center
11:12AM 39.9567 -74.0800 34° Northeast 542 624 27,100 -2,220 Descending New York Center
11:13AM 40.0744 -73.9692 36° Northeast 536 617 25,000 -1,080 Descending New York Center
11:14AM 40.1878 -73.8656 35° Northeast 519 597 25,000  Level New York Center
11:15AM 40.3050 -73.7567 35° Northeast 512 589 25,000 -720 Level New York Center
11:16AM 40.4847 -73.5867 36° Northeast 508 585 23,200 -1,500 Descending Boston Center
11:17AM 40.5950 -73.4883 34° Northeast 489 563 21,100 -2,040 Descending Boston Center
11:18AM 40.7003 -73.3894 35° Northeast 472 543 19,200 -1,020 Descending Boston Center
11:19AM 40.8086 -73.2864 36° Northeast 459 528 19,000 -660 Descending Boston Center
11:20AM 40.9069 -73.1719 41° Northeast 467 537 17,900 -1,440 Descending Boston Center
11:21AM 41.0017 -73.0622 41° Northeast 453 521 16,100 -1,920 Descending Boston Center
11:23AM 41.0925 -72.9550 42° Northeast 436 502 14,100 -2,280 Descending Boston Center
11:23AM 41.1769 -72.8522 42° Northeast 409 471 12,000 -2,040 Descending Boston Center
11:24AM 41.1800 -72.8517 North 420 483 12,100 -1,140 Climbing Boston Center
11:24AM 41.2550 -72.7658 41° Northeast 403 464 11,000 -1,080 Descending Boston Center
11:25AM 41.2803 -72.7539 20° North 400 460 11,000 -120 Level Boston Center
11:25AM 41.3544 -72.7439 North 357 411 10,900 -420 Descending Boston Center
11:26AM 41.3839 -72.7542 345° North 339 390 10,600 -900 Descending Boston Center
11:26AM 41.4297 -72.7881 331° Northwest 249 287 10,000 -1,200 Descending Boston Center
11:27AM 41.4494 -72.8033 330° Northwest 269 310 9,400 -1,920 Descending Boston Center
11:27AM 41.4886 -72.8378 327° Northwest 257 296 8,100 -1,860 Descending Boston Center
11:28AM 41.5567 -72.8219 10° North 298 343 6,300 -1,920 Descending Boston Center
11:29AM 41.6144 -72.7594 39° Northeast 256 295 4,300 -1,260 Descending Boston Center
11:30AM 41.6706 -72.6961 40° Northeast 248 285 3,800 -720 Descending Boston Center
11:31AM 41.7228 -72.6397 39° Northeast 245 282 2,900 -600 Descending Boston Center
11:32AM 41.7739 -72.5889 37° Northeast 218 251 2,600 -360 Descending Boston Center
11:33AM 41.8286 -72.5739 12° North 182 209 2,200 -420 Descending Boston Center
11:34AM 41.8714 -72.5978 337° Northwest 145 167 1,800 -480 Descending Boston Center
11:35AM 41.8939 -72.6261 317° Northwest 115 132 1,300 -660 Descending Boston Center
11:36AM 41.9172 -72.6603 313° West 120 138 600 -720 Descending Boston Center